Time;durP1;ratioP1;P1;durP2;ratioP2;P2;SDS_P1;SDS_P2;PMS_P1;PMS_P2;Temp;Humidity;BMP_temperature;BMP_pressure;BME280_temperature;BME280_humidity;BME280_pressure;Samples;Min_cycle;Max_cycle;Signal;HPM_P1;HPM_P2
2021/03/22 04:32:21;;;;;;;18.80;7.67;;;;;;;8.37;52.25;99133.56;7410560;23;20302;-81
2021/03/22 04:35:44;;;;;;;21.43;8.00;;;;;;;8.14;52.49;99117.44;6886684;28;20680;-80
2021/03/22 04:39:06;;;;;;;20.40;7.93;;;;;;;8.38;51.77;99149.47;6868807;28;20275;-81
2021/03/22 04:42:29;;;;;;;23.20;9.27;;;;;;;8.66;51.49;99152.41;6868722;28;20784;-81
2021/03/22 04:45:50;;;;;;;19.80;8.43;;;;;;;8.31;51.82;99137.78;6869054;28;20195;-80
2021/03/22 04:49:15;;;;;;;18.57;8.70;;;;;;;7.84;53.00;99141.72;6869238;28;20590;-79
2021/03/22 04:52:40;;;;;;;22.47;8.30;;;;;;;8.26;52.88;99152.78;6868480;28;20240;-80
2021/03/22 04:56:01;;;;;;;21.90;8.87;;;;;;;8.38;52.54;99149.47;6868673;28;20587;-80
2021/03/22 04:59:27;;;;;;;19.20;7.87;;;;;;;8.48;52.77;99152.72;6868803;28;20247;-80
2021/03/22 05:02:48;;;;;;;16.93;8.20;;;;;;;7.94;52.44;99064.44;6868405;28;20255;-80
2021/03/22 05:06:10;;;;;;;23.27;7.90;;;;;;;8.70;51.72;99150.97;6890301;28;20623;-80
2021/03/22 05:09:31;;;;;;;20.40;7.37;;;;;;;8.84;51.00;99142.91;6895416;28;20208;-80
2021/03/22 05:12:55;;;;;;;16.07;7.30;;;;;;;8.83;51.46;99152.00;6896283;28;20234;-81
2021/03/22 05:16:17;;;;;;;20.03;7.87;;;;;;;8.19;51.68;99144.59;6895986;28;20207;-80
2021/03/22 05:19:38;;;;;;;28.57;8.40;;;;;;;7.61;54.01;99136.31;6896672;28;20232;-80
2021/03/22 05:23:15;;;;;;;20.40;7.97;;;;;;;8.15;53.37;99124.50;6899178;28;20232;-82
2021/03/22 05:26:36;;;;;;;25.30;11.73;;;;;;;8.04;52.68;99106.13;6899916;28;20181;-85
2021/03/22 05:29:57;;;;;;;33.77;14.50;;;;;;;8.15;53.07;99164.78;6878489;28;20287;-86
2021/03/22 05:33:24;;;;;;;30.00;11.27;;;;;;;8.23;52.77;99135.19;6895020;28;20247;-87
2021/03/22 05:36:45;;;;;;;20.10;9.73;;;;;;;8.66;52.25;99174.72;6896477;28;20709;-86
2021/03/22 05:40:11;;;;;;;22.37;9.50;;;;;;;8.30;53.12;99178.28;6896453;28;20235;-86
2021/03/22 05:43:53;;;;;;;26.00;9.57;;;;;;;8.42;52.90;99177.66;6867764;28;20625;-87
2021/03/22 05:47:23;;;;;;;24.40;9.73;;;;;;;8.42;52.93;99169.59;6876176;28;20279;-86
2021/03/22 05:51:12;;;;;;;19.83;9.20;;;;;;;8.23;53.53;99175.47;6879480;28;20243;-84
2021/03/22 05:55:05;;;;;;;18.53;9.13;;;;;;;8.54;52.97;99165.44;6878813;28;20724;-84
2021/03/22 05:58:42;;;;;;;20.27;8.47;;;;;;;8.42;52.35;99136.53;6873915;28;20193;-85
2021/03/22 06:02:11;;;;;;;15.53;7.27;;;;;;;8.44;52.57;99202.47;6877278;28;20604;-85
2021/03/22 06:05:40;;;;;;;16.00;7.43;;;;;;;8.52;52.43;99154.03;6878496;28;20212;-85
2021/03/22 06:09:09;;;;;;;14.13;5.13;;;;;;;8.51;50.88;99176.56;6902869;28;20200;-87
2021/03/22 06:12:37;;;;;;;10.33;4.07;;;;;;;8.45;48.35;99171.91;6903456;28;20232;-85
2021/03/22 06:16:01;;;;;;;15.20;4.07;;;;;;;8.76;47.09;99171.75;6904895;28;20192;-84
2021/03/22 06:19:22;;;;;;;12.87;4.03;;;;;;;8.87;46.12;99193.66;6905183;28;20248;-87
2021/03/22 06:22:44;;;;;;;19.20;5.60;;;;;;;9.08;45.57;99201.78;6905432;28;20228;-89
2021/03/22 06:26:25;;;;;;;12.10;4.20;;;;;;;8.50;46.09;99145.34;6901655;28;20216;-84
2021/03/22 06:29:47;;;;;;;11.10;4.20;;;;;;;8.70;45.39;99196.69;6877229;28;20208;-84
2021/03/22 06:33:13;;;;;;;11.47;4.27;;;;;;;9.03;45.57;99180.84;6875060;28;20236;-84
2021/03/22 06:36:37;;;;;;;15.23;5.03;;;;;;;9.22;45.00;99198.28;6876716;28;20197;-85
2021/03/22 06:40:10;;;;;;;13.07;4.10;;;;;;;9.08;45.04;99228.69;6878456;28;20231;-84
2021/03/22 06:43:33;;;;;;;11.03;4.60;;;;;;;8.97;45.02;99226.50;6879656;28;20285;-85
2021/03/22 06:47:01;;;;;;;11.00;3.93;;;;;;;8.97;45.49;99229.19;6902372;28;20239;-87
2021/03/22 06:50:28;;;;;;;18.70;4.70;;;;;;;8.92;46.06;99225.34;6898476;28;20771;-83
2021/03/22 06:53:55;;;;;;;13.17;4.17;;;;;;;8.97;45.88;99228.34;6896216;28;20205;-83
2021/03/22 06:57:18;;;;;;;13.97;4.60;;;;;;;8.93;46.37;99233.25;6896825;28;20204;-82
2021/03/22 07:00:39;;;;;;;14.63;4.43;;;;;;;8.99;45.87;99202.94;6896951;28;20287;-82
2021/03/22 07:04:25;;;;;;;19.40;4.60;;;;;;;8.96;46.92;99229.34;6899833;28;20227;-86
2021/03/22 07:07:57;;;;;;;14.37;4.83;;;;;;;8.82;47.00;99248.97;6902250;28;20679;-84
2021/03/22 07:11:20;;;;;;;12.23;4.97;;;;;;;9.30;46.12;99246.59;6902863;28;20286;-84
2021/03/22 07:14:47;;;;;;;19.87;4.70;;;;;;;9.41;46.39;99238.91;6905717;28;20208;-86
2021/03/22 07:18:18;;;;;;;19.20;5.00;;;;;;;9.20;46.87;99228.06;6906416;28;20228;-84
2021/03/22 07:21:52;;;;;;;22.33;5.07;;;;;;;9.31;46.19;99232.13;6900851;28;20220;-82
2021/03/22 07:25:33;;;;;;;14.67;4.53;;;;;;;9.54;45.42;99232.84;6900376;28;20201;-84
2021/03/22 07:29:07;;;;;;;13.77;4.73;;;;;;;8.98;46.93;99206.63;6903094;28;20195;-86
2021/03/22 07:33:00;;;;;;;12.40;5.43;;;;;;;9.42;46.02;99245.09;6901437;28;20228;-84
2021/03/22 07:36:24;;;;;;;19.37;4.90;;;;;;;9.91;45.85;99256.88;6899530;28;20223;-83
2021/03/22 07:39:48;;;;;;;19.43;5.03;;;;;;;9.42;46.18;99245.09;6896006;28;20228;-81
2021/03/22 07:43:15;;;;;;;15.93;4.87;;;;;;;9.92;45.53;99247.81;6897961;28;20224;-81
2021/03/22 07:47:01;;;;;;;17.23;4.87;;;;;;;9.88;45.56;99265.38;6900062;28;20196;-80
2021/03/22 07:50:32;;;;;;;22.90;6.03;;;;;;;9.70;45.75;99255.00;6871165;28;20586;-83
2021/03/22 07:54:02;;;;;;;16.27;5.07;;;;;;;9.90;45.14;99223.75;6874149;28;20193;-83
2021/03/22 07:57:37;;;;;;;24.50;6.00;;;;;;;9.82;45.34;99266.13;6874224;28;20709;-83
2021/03/22 08:01:05;;;;;;;22.50;7.17;;;;;;;9.80;45.91;99270.88;6872873;28;20232;-80
2021/03/22 08:04:41;;;;;;;23.00;5.90;;;;;;;9.89;45.67;99259.81;6874811;28;20688;-81
2021/03/22 08:08:07;;;;;;;13.90;5.13;;;;;;;10.26;45.53;99266.84;6873842;28;20563;-82
2021/03/22 08:11:37;;;;;;;17.60;5.40;;;;;;;9.94;45.60;99275.38;6873564;28;20247;-82
2021/03/22 08:15:03;;;;;;;19.27;5.90;;;;;;;10.00;45.75;99250.38;6887016;28;20206;-82
2021/03/22 08:18:32;;;;;;;20.60;5.67;;;;;;;9.70;46.06;99286.47;6898816;28;20213;-83
2021/03/22 08:22:01;;;;;;;20.77;5.63;;;;;;;10.00;46.28;99280.84;6898975;28;20216;-82
2021/03/22 08:25:34;;;;;;;15.73;6.17;;;;;;;10.48;44.78;99288.25;6898063;28;20216;-83
2021/03/22 08:29:05;;;;;;;19.93;5.43;;;;;;;9.81;45.38;99286.00;6899398;28;20214;-80
2021/03/22 08:32:41;;;;;;;16.77;5.57;;;;;;;10.09;45.11;99287.81;6899934;28;20232;-83
2021/03/22 08:36:18;;;;;;;15.83;5.33;;;;;;;10.20;44.98;99298.09;6900394;28;20295;-81
2021/03/22 08:39:44;;;;;;;10.20;4.03;;;;;;;9.38;45.89;99309.22;6877945;28;20224;-82
2021/03/22 08:43:14;;;;;;;18.87;4.13;;;;;;;10.17;44.17;99303.03;6872440;28;20229;-81
2021/03/22 08:46:41;;;;;;;15.03;4.57;;;;;;;10.11;44.22;99314.56;6881231;28;20297;-81
2021/03/22 08:50:09;;;;;;;14.67;4.20;;;;;;;10.07;44.17;99327.59;6901540;28;20189;-83
2021/03/22 08:53:39;;;;;;;14.53;4.40;;;;;;;9.24;45.66;99322.69;6874307;28;20231;-85
2021/03/22 08:57:09;;;;;;;14.07;4.20;;;;;;;9.88;45.51;99321.94;6890990;28;20672;-86
2021/03/22 09:00:37;;;;;;;17.37;5.03;;;;;;;9.86;44.61;99335.56;6901332;28;20232;-79
2021/03/22 09:04:25;;;;;;;15.57;5.00;;;;;;;10.15;44.88;99332.84;6904790;28;20203;-79
2021/03/22 09:07:49;;;;;;;13.53;4.77;;;;;;;9.92;44.72;99304.38;6904214;28;20216;-83
2021/03/22 09:11:17;;;;;;;14.87;4.47;;;;;;;9.61;45.95;99331.50;6896530;28;20264;-80
2021/03/22 09:14:42;;;;;;;11.07;4.67;;;;;;;9.78;46.02;99324.91;6897245;28;20216;-80
2021/03/22 09:18:15;;;;;;;13.23;3.93;;;;;;;9.81;46.80;99311.06;6897106;28;20200;-82
2021/03/22 09:21:40;;;;;;;9.30;4.13;;;;;;;9.62;46.55;99313.50;6896179;28;20708;-81
2021/03/22 09:25:03;;;;;;;16.47;4.60;;;;;;;9.93;45.23;99328.41;6868936;28;20203;-81
2021/03/22 09:29:00;;;;;;;21.47;4.70;;;;;;;10.52;45.01;99337.22;6869634;28;20260;-81
2021/03/22 09:32:41;;;;;;;11.90;4.73;;;;;;;10.64;45.13;99349.16;6847427;28;20252;-81
2021/03/22 09:36:09;;;;;;;9.30;4.50;;;;;;;11.15;43.30;99335.28;6868973;28;20209;-80
2021/03/22 09:39:50;;;;;;;10.73;3.77;;;;;;;10.90;43.20;99333.22;6869321;28;20240;-81
2021/03/22 09:43:38;;;;;;;14.73;3.90;;;;;;;10.97;43.27;99337.63;6873247;28;20235;-80
2021/03/22 09:47:14;;;;;;;12.17;4.03;;;;;;;10.99;43.33;99340.16;6892865;28;20208;-80
2021/03/22 09:50:37;;;;;;;9.27;3.17;;;;;;;11.39;41.88;99336.72;6882451;28;20220;-81
2021/03/22 09:54:00;;;;;;;7.43;3.17;;;;;;;10.65;43.46;99313.91;6893276;28;20291;-80
2021/03/22 09:57:45;;;;;;;7.07;2.97;;;;;;;11.18;42.80;99339.47;6894069;28;20257;-80
2021/03/22 10:01:12;;;;;;;11.53;3.80;;;;;;;10.79;43.68;99344.53;6895041;28;20235;-80
2021/03/22 10:04:36;;;;;;;8.50;3.33;;;;;;;10.56;44.37;99343.91;6893500;28;20208;-80
2021/03/22 10:08:23;;;;;;;11.07;3.80;;;;;;;10.59;44.60;99352.44;6893528;28;20211;-80
2021/03/22 10:11:49;;;;;;;14.43;4.03;;;;;;;11.00;43.91;99347.22;6881604;28;20713;-83
2021/03/22 10:15:23;;;;;;;9.57;3.73;;;;;;;11.09;43.25;99363.06;6866500;28;20209;-83
2021/03/22 10:18:52;;;;;;;9.77;3.93;;;;;;;10.71;43.67;99350.06;6867331;28;20201;-78
2021/03/22 10:22:19;;;;;;;10.37;3.37;;;;;;;11.20;42.70;99357.13;6865965;28;20622;-81
2021/03/22 10:25:42;;;;;;;9.43;4.67;;;;;;;11.62;43.15;99353.53;6864682;28;20192;-78
2021/03/22 10:29:12;;;;;;;8.40;3.63;;;;;;;10.97;42.04;99328.69;6863421;28;20205;-80
2021/03/22 10:32:39;;;;;;;8.10;3.80;;;;;;;11.77;41.39;99343.44;6868988;28;20309;-80
2021/03/22 10:36:07;;;;;;;7.10;3.43;;;;;;;11.57;41.01;99347.84;6863853;28;20618;-79
2021/03/22 10:39:34;;;;;;;11.20;3.30;;;;;;;12.07;40.93;99355.63;6864607;28;20406;-80
2021/03/22 10:42:58;;;;;;;8.17;3.60;;;;;;;11.58;40.72;99350.38;6865294;28;20728;-82
2021/03/22 10:46:21;;;;;;;9.90;4.73;;;;;;;11.24;41.81;99333.28;6877212;28;20208;-81
2021/03/22 10:49:43;;;;;;;12.33;4.60;;;;;;;11.44;42.45;99345.91;6892577;28;20814;-79
2021/03/22 10:53:10;;;;;;;37.43;20.20;;;;;;;11.47;44.11;99342.81;6891134;28;20626;-79
2021/03/22 10:56:36;;;;;;;165.87;102.30;;;;;;;11.21;43.22;99355.28;6891027;28;20323;-79
2021/03/22 11:00:01;;;;;;;26.07;14.20;;;;;;;11.09;44.10;99363.06;6893288;28;20224;-83
2021/03/22 11:03:28;;;;;;;13.97;7.13;;;;;;;11.03;43.61;99363.84;6894258;28;20281;-80
2021/03/22 11:06:54;;;;;;;20.97;9.43;;;;;;;11.30;42.97;99356.78;6893220;28;20204;-82
2021/03/22 11:10:21;;;;;;;10.77;4.53;;;;;;;11.13;42.22;99360.81;6892692;28;20204;-80
2021/03/22 11:13:46;;;;;;;8.90;4.70;;;;;;;11.30;42.47;99357.66;6893474;28;20192;-81
2021/03/22 11:17:18;;;;;;;21.60;17.67;;;;;;;11.51;42.79;99354.88;6893016;28;20572;-79
2021/03/22 11:20:42;;;;;;;11.43;4.63;;;;;;;11.29;42.67;99360.53;6892955;28;20236;-80
2021/03/22 11:24:15;;;;;;;11.40;3.83;;;;;;;11.54;42.00;99354.50;6882484;28;20209;-80
2021/03/22 11:27:54;;;;;;;9.07;3.90;;;;;;;11.23;42.18;99356.72;6864579;28;20212;-80
2021/03/22 11:31:24;;;;;;;8.83;3.03;;;;;;;10.95;43.24;99350.50;6875173;28;20232;-81
2021/03/22 11:34:48;;;;;;;11.00;3.60;;;;;;;11.49;42.70;99353.41;6891134;28;20185;-81
2021/03/22 11:38:24;;;;;;;6.77;3.40;;;;;;;11.28;42.44;99329.19;6891363;28;20204;-80
2021/03/22 11:42:05;;;;;;;7.60;3.20;;;;;;;11.28;42.13;99330.00;6891273;28;20234;-80
2021/03/22 11:45:32;;;;;;;6.00;3.10;;;;;;;11.92;41.31;99336.84;6863436;28;20236;-79
2021/03/22 11:49:00;;;;;;;9.73;3.70;;;;;;;11.65;41.73;99340.47;6865988;28;20216;-81
2021/03/22 11:52:25;;;;;;;7.57;3.43;;;;;;;11.23;41.16;99342.41;6869786;28;20229;-80
2021/03/22 11:55:48;;;;;;;7.60;3.20;;;;;;;11.49;42.44;99342.59;6868091;28;20601;-81
2021/03/22 11:59:18;;;;;;;11.57;3.63;;;;;;;11.69;40.84;99330.09;6872456;28;20231;-79
2021/03/22 12:02:50;;;;;;;12.27;3.43;;;;;;;11.72;41.14;99343.19;6895075;28;20259;-77
2021/03/22 12:06:20;;;;;;;5.43;3.20;;;;;;;11.94;40.90;99340.22;6894531;28;20207;-80
2021/03/22 12:09:42;;;;;;;7.83;3.43;;;;;;;11.64;41.28;99338.78;6894702;28;20199;-77
2021/03/22 12:13:04;;;;;;;8.23;3.03;;;;;;;11.61;41.09;99344.59;6894501;28;20239;-77
2021/03/22 12:16:28;;;;;;;5.50;2.90;;;;;;;11.31;41.78;99337.72;6894496;28;20236;-77
2021/03/22 12:19:49;;;;;;;6.03;3.20;;;;;;;11.80;41.14;99326.84;6894269;28;20235;-77
2021/03/22 12:23:12;;;;;;;5.97;3.50;;;;;;;12.05;39.96;99330.69;6894241;28;20228;-77
2021/03/22 12:26:33;;;;;;;8.53;3.73;;;;;;;11.06;42.01;99344.59;6894441;28;20649;-77
2021/03/22 12:30:00;;;;;;;8.03;3.90;;;;;;;11.55;40.92;99331.84;6894327;28;20251;-78
2021/03/22 12:33:25;;;;;;;9.93;3.90;;;;;;;11.94;40.21;99331.25;6893521;28;20723;-78
2021/03/22 12:36:50;;;;;;;9.10;3.60;;;;;;;11.67;39.64;99329.44;6893550;28;20238;-80
2021/03/22 12:40:14;;;;;;;7.87;4.00;;;;;;;11.52;40.83;99323.31;6892696;28;20208;-78
2021/03/22 12:43:36;;;;;;;8.40;3.77;;;;;;;11.40;40.58;99322.19;6894627;28;20211;-78
2021/03/22 12:46:59;;;;;;;9.20;4.03;;;;;;;11.34;41.06;99322.97;6894416;28;20204;-78
2021/03/22 12:50:23;;;;;;;6.13;3.67;;;;;;;11.42;41.01;99293.97;6893077;28;20232;-78
2021/03/22 12:53:44;;;;;;;8.27;3.67;;;;;;;12.13;40.35;99335.91;6893256;28;20211;-78
2021/03/22 12:57:10;;;;;;;8.70;3.30;;;;;;;11.01;42.04;99336.22;6893126;28;20672;-81
2021/03/22 13:00:32;;;;;;;10.43;3.30;;;;;;;11.68;41.88;99331.94;6888397;28;20225;-81
2021/03/22 13:04:01;;;;;;;9.00;4.00;;;;;;;11.72;40.10;99297.25;6887669;28;20205;-80
2021/03/22 13:07:22;;;;;;;9.50;3.70;;;;;;;11.69;40.79;99343.59;6893476;28;20188;-80
2021/03/22 13:10:47;;;;;;;8.23;3.37;;;;;;;11.27;41.61;99324.81;6895798;28;20227;-81
2021/03/22 13:14:14;;;;;;;8.87;3.80;;;;;;;11.68;41.48;99341.94;6895845;28;20204;-81
2021/03/22 13:17:36;;;;;;;8.93;4.43;;;;;;;11.71;40.77;99345.06;6893253;28;20208;-80
2021/03/22 13:21:04;;;;;;;10.27;4.80;;;;;;;11.90;40.39;99332.69;6893436;28;20259;-80
2021/03/22 13:24:31;;;;;;;5.37;3.73;;;;;;;11.73;41.46;99345.69;6880483;28;20274;-80
2021/03/22 13:27:52;;;;;;;6.93;3.73;;;;;;;11.87;41.39;99338.50;6892486;28;20239;-80
2021/03/22 13:31:19;;;;;;;8.70;3.83;;;;;;;11.92;41.44;99342.25;6892798;28;20235;-80
2021/03/22 13:34:41;;;;;;;10.17;3.00;;;;;;;12.08;41.08;99331.13;6892798;28;20208;-81
2021/03/22 13:38:03;;;;;;;5.93;3.53;;;;;;;12.30;40.84;99334.50;6892658;28;20220;-80
2021/03/22 13:41:29;;;;;;;8.23;3.50;;;;;;;12.05;41.08;99344.19;6893102;28;20236;-81
2021/03/22 13:44:51;;;;;;;5.03;2.70;;;;;;;12.30;39.82;99339.91;6892382;28;20652;-80
2021/03/22 13:48:16;;;;;;;7.07;3.27;;;;;;;11.77;41.19;99343.44;6892154;28;20205;-80
2021/03/22 13:51:39;;;;;;;6.73;3.13;;;;;;;11.95;40.45;99344.56;6892370;28;20224;-80
2021/03/22 13:55:07;;;;;;;6.53;3.00;;;;;;;11.69;40.51;99335.50;6891480;28;20239;-81
2021/03/22 13:58:30;;;;;;;4.90;2.60;;;;;;;12.05;40.30;99341.50;6892375;28;20207;-80
2021/03/22 14:01:55;;;;;;;7.43;3.43;;;;;;;12.18;40.77;99338.84;6892045;28;20262;-81
2021/03/22 14:05:22;;;;;;;6.10;3.07;;;;;;;12.28;39.98;99342.00;6891075;28;20208;-80
2021/03/22 14:08:44;;;;;;;6.70;3.03;;;;;;;11.86;39.96;99334.13;6891869;28;20564;-80
2021/03/22 14:12:06;;;;;;;5.57;3.33;;;;;;;11.39;40.30;99309.72;6890510;28;20224;-80
2021/03/22 14:15:33;;;;;;;8.10;3.63;;;;;;;11.70;40.04;99348.78;6891376;28;20219;-80
2021/03/22 14:18:55;;;;;;;6.40;3.53;;;;;;;12.20;39.78;99343.00;6892482;28;20247;-81
2021/03/22 14:22:22;;;;;;;8.40;3.40;;;;;;;12.25;39.64;99347.81;6891557;28;20252;-80
2021/03/22 14:25:43;;;;;;;7.90;3.50;;;;;;;11.63;40.57;99349.81;6890932;28;20212;-82
2021/03/22 14:29:06;;;;;;;8.53;4.07;;;;;;;11.52;40.69;99332.22;6891335;28;20208;-81
2021/03/22 14:32:27;;;;;;;5.87;3.50;;;;;;;11.97;40.20;99349.75;6888133;28;20240;-81
2021/03/22 14:35:48;;;;;;;7.73;3.20;;;;;;;11.75;39.76;99342.81;6893218;28;20203;-81
2021/03/22 14:39:11;;;;;;;5.47;4.30;;;;;;;11.34;41.06;99353.50;6918140;28;20208;-81
2021/03/22 14:42:35;;;;;;;5.77;4.20;;;;;;;11.51;40.97;99340.56;6916985;28;20219;-81
2021/03/22 14:45:56;;;;;;;10.97;4.33;;;;;;;11.50;41.39;99357.75;6917706;28;20208;-81
2021/03/22 14:49:17;;;;;;;8.13;3.70;;;;;;;11.50;41.65;99368.56;6903589;28;20215;-81
2021/03/22 14:52:39;;;;;;;5.53;3.80;;;;;;;11.57;41.53;99358.66;6890600;28;20235;-81
2021/03/22 14:56:04;;;;;;;6.10;3.57;;;;;;;11.48;41.66;99365.22;6901716;28;20218;-81
2021/03/22 14:59:30;;;;;;;7.47;3.43;;;;;;;11.59;41.59;99356.63;6876816;28;20232;-80
2021/03/22 15:02:52;;;;;;;9.30;4.20;;;;;;;11.19;42.28;99362.72;6864534;28;20256;-80
2021/03/22 15:06:14;;;;;;;9.23;4.67;;;;;;;11.24;42.23;99338.69;6869274;28;20262;-80
2021/03/22 15:09:35;;;;;;;8.73;4.73;;;;;;;11.51;42.07;99357.56;6888592;28;20224;-80
2021/03/22 15:12:57;;;;;;;9.70;4.33;;;;;;;11.28;42.37;99362.38;6892344;28;20235;-81
2021/03/22 15:16:21;;;;;;;10.33;4.70;;;;;;;11.49;42.24;99366.91;6883560;28;20208;-80
2021/03/22 15:19:45;;;;;;;7.50;4.60;;;;;;;11.61;42.42;99370.75;6877806;28;20221;-80
2021/03/22 15:23:07;;;;;;;7.57;4.20;;;;;;;11.55;42.27;99374.22;6874347;28;20225;-80
2021/03/22 15:26:30;;;;;;;10.47;4.60;;;;;;;11.59;42.62;99376.38;6873247;28;20197;-80
2021/03/22 15:29:52;;;;;;;11.53;4.87;;;;;;;11.29;42.86;99372.19;6869693;28;20252;-81
2021/03/22 15:33:31;;;;;;;9.73;5.53;;;;;;;11.47;42.91;99372.53;6869306;28;20239;-81
2021/03/22 15:36:52;;;;;;;11.43;4.70;;;;;;;11.30;43.51;99378.38;6871060;28;20204;-77
2021/03/22 15:40:15;;;;;;;7.87;4.10;;;;;;;11.51;42.88;99356.75;6879982;28;20321;-78
2021/03/22 15:43:40;;;;;;;12.37;5.13;;;;;;;11.41;43.08;99377.84;6874148;28;20263;-79
2021/03/22 15:47:04;;;;;;;14.53;6.63;;;;;;;11.66;42.90;99376.41;6868091;28;20205;-81
2021/03/22 15:50:25;;;;;;;10.63;7.43;;;;;;;11.39;42.97;99363.72;6868023;28;20204;-81
2021/03/22 15:53:48;;;;;;;10.33;5.93;;;;;;;11.51;43.08;99373.78;6868243;28;20555;-80
2021/03/22 15:57:09;;;;;;;8.53;6.30;;;;;;;11.65;42.52;99378.28;6883945;28;20208;-81
2021/03/22 16:00:32;;;;;;;8.77;4.30;;;;;;;11.69;42.64;99384.13;6907600;28;20266;-82
2021/03/22 16:03:54;;;;;;;16.93;8.47;;;;;;;11.28;43.57;99381.28;6906747;28;20212;-81
2021/03/22 16:07:15;;;;;;;10.63;4.57;;;;;;;10.97;43.89;99386.22;6895330;28;20204;-83
2021/03/22 16:10:39;;;;;;;6.17;4.47;;;;;;;11.37;43.65;99395.47;6895975;28;20569;-82
2021/03/22 16:14:01;;;;;;;7.47;4.23;;;;;;;11.57;43.01;99394.59;6895647;28;20223;-81
2021/03/22 16:17:22;;;;;;;7.27;5.10;;;;;;;11.78;42.51;99397.28;6868963;28;20224;-82
2021/03/22 16:20:46;;;;;;;6.37;4.07;;;;;;;11.43;42.77;99360.44;6868767;28;20240;-82
2021/03/22 16:24:08;;;;;;;9.20;4.70;;;;;;;11.40;43.56;99400.50;6882554;28;20293;-81
2021/03/22 16:27:29;;;;;;;8.57;5.07;;;;;;;11.42;43.57;99387.63;6887162;28;20209;-82
2021/03/22 16:30:54;;;;;;;11.70;5.30;;;;;;;11.38;44.37;99406.09;6915977;28;20793;-82
2021/03/22 16:34:15;;;;;;;14.03;5.27;;;;;;;11.61;43.86;99414.81;6922206;28;20196;-83
2021/03/22 16:37:38;;;;;;;8.03;5.53;;;;;;;11.66;43.37;99395.31;6920784;28;20216;-82
2021/03/22 16:41:04;;;;;;;12.23;6.40;;;;;;;11.06;45.37;99411.19;6903979;28;20251;-81
2021/03/22 16:44:28;;;;;;;9.63;6.83;;;;;;;11.59;44.35;99402.53;6894906;28;20223;-82
2021/03/22 16:47:49;;;;;;;13.50;6.23;;;;;;;11.17;45.11;99416.88;6894459;28;20205;-82
2021/03/22 16:51:10;;;;;;;13.37;6.00;;;;;;;11.22;45.42;99429.81;6889820;28;20229;-82
2021/03/22 16:54:33;;;;;;;9.50;6.10;;;;;;;10.94;45.45;99407.34;6867475;28;20217;-82
2021/03/22 16:57:54;;;;;;;13.53;6.43;;;;;;;11.11;45.29;99430.34;6866807;28;20209;-82
2021/03/22 17:01:15;;;;;;;10.80;6.67;;;;;;;11.27;44.88;99422.00;6891124;28;20227;-82
2021/03/22 17:04:37;;;;;;;9.50;6.67;;;;;;;11.37;44.74;99417.06;6884363;28;20201;-82
2021/03/22 17:08:01;;;;;;;11.80;7.07;;;;;;;11.53;44.65;99428.44;6890869;28;20661;-80
2021/03/22 17:11:26;;;;;;;10.70;6.23;;;;;;;11.74;44.62;99435.69;6894099;28;20235;-81
2021/03/22 17:14:51;;;;;;;10.93;7.03;;;;;;;11.79;43.95;99431.34;6895377;28;20610;-84
2021/03/22 17:18:13;;;;;;;10.70;6.80;;;;;;;11.44;45.32;99428.75;6892223;28;20700;-82
2021/03/22 17:21:34;;;;;;;11.90;7.80;;;;;;;11.71;44.66;99447.72;6868930;28;20243;-81
2021/03/22 17:24:57;;;;;;;13.97;8.17;;;;;;;11.37;44.74;99444.91;6867139;28;20255;-81
2021/03/22 17:28:19;;;;;;;11.13;6.63;;;;;;;11.29;45.25;99452.31;6867594;28;20736;-82
2021/03/22 17:31:40;;;;;;;11.50;8.00;;;;;;;11.47;44.65;99458.09;6866842;28;20233;-82
2021/03/22 17:35:04;;;;;;;14.20;7.90;;;;;;;11.68;43.99;99455.38;6867206;28;20756;-81
2021/03/22 17:38:29;;;;;;;13.17;8.40;;;;;;;11.47;44.87;99442.72;6873580;28;20296;-81
2021/03/22 17:41:50;;;;;;;15.20;9.10;;;;;;;11.48;44.79;99457.88;6908462;28;20228;-82
2021/03/22 17:45:16;;;;;;;15.37;7.90;;;;;;;11.53;45.16;99477.06;6920734;28;20222;-82
2021/03/22 17:48:39;;;;;;;11.93;7.03;;;;;;;11.04;46.00;99473.44;6919848;28;20214;-81
2021/03/22 17:52:02;;;;;;;14.50;8.60;;;;;;;11.19;46.45;99479.63;6915698;28;20231;-80
2021/03/22 17:55:26;;;;;;;15.87;7.73;;;;;;;10.99;46.45;99485.84;6875487;28;20590;-81
2021/03/22 17:58:50;;;;;;;9.67;8.40;;;;;;;11.18;46.07;99486.06;6890669;28;20203;-81
2021/03/22 18:02:17;;;;;;;10.57;8.30;;;;;;;11.05;46.17;99477.00;6890908;28;20228;-82
2021/03/22 18:05:39;;;;;;;11.90;9.67;;;;;;;11.19;45.70;99479.63;6897651;28;20251;-82
2021/03/22 18:09:02;;;;;;;15.07;10.53;;;;;;;11.22;46.23;99497.31;6900741;28;20258;-82
2021/03/22 18:12:25;;;;;;;13.10;9.27;;;;;;;11.24;46.24;99495.25;6894790;28;20224;-82
2021/03/22 18:15:46;;;;;;;23.03;15.00;;;;;;;11.40;45.84;99490.41;6893779;28;20208;-82
2021/03/22 18:19:08;;;;;;;17.50;11.83;;;;;;;11.07;46.79;99491.97;6892097;28;20612;-81
2021/03/22 18:22:29;;;;;;;13.83;9.47;;;;;;;11.16;45.96;99528.59;6893099;28;20223;-79
2021/03/22 18:25:51;;;;;;;16.50;7.77;;;;;;;11.09;46.59;99524.16;6902852;28;20546;-81
2021/03/22 18:29:13;;;;;;;11.90;6.80;;;;;;;11.28;45.80;99510.03;6919003;28;20227;-81
2021/03/22 18:32:34;;;;;;;9.63;7.53;;;;;;;11.23;45.82;99512.47;6919415;28;20297;-81
2021/03/22 18:35:56;;;;;;;11.13;7.43;;;;;;;11.08;46.97;99520.63;6919005;28;20203;-81
2021/03/22 18:39:21;;;;;;;12.83;8.20;;;;;;;10.96;46.50;99532.94;6919146;28;20226;-81
2021/03/22 18:42:46;;;;;;;12.73;9.63;;;;;;;11.06;46.88;99532.63;6899652;28;20320;-82
2021/03/22 18:46:07;;;;;;;14.17;7.97;;;;;;;11.25;46.45;99534.69;6878699;28;20216;-82
2021/03/22 18:49:28;;;;;;;10.83;7.70;;;;;;;10.88;46.85;99524.97;6865223;28;20212;-81
2021/03/22 18:52:50;;;;;;;12.40;8.10;;;;;;;11.14;46.57;99535.19;6887298;28;20270;-81
2021/03/22 18:56:14;;;;;;;13.20;7.87;;;;;;;11.17;46.35;99548.31;6891306;28;20205;-81
2021/03/22 18:59:35;;;;;;;8.17;5.87;;;;;;;10.97;46.83;99548.09;6895708;28;20295;-81
2021/03/22 19:02:59;;;;;;;10.43;7.77;;;;;;;11.13;46.59;99550.56;6892202;28;20232;-81
2021/03/22 19:06:20;;;;;;;11.73;7.70;;;;;;;11.28;45.76;99550.53;6871502;28;20243;-81
2021/03/22 19:09:47;;;;;;;7.47;5.97;;;;;;;11.04;46.66;99559.78;6871974;28;20212;-81
2021/03/22 19:13:09;;;;;;;11.13;8.20;;;;;;;10.82;47.25;99565.34;6880431;28;20225;-81
2021/03/22 19:16:31;;;;;;;10.50;6.63;;;;;;;10.85;46.50;99555.00;6883584;28;20208;-81
2021/03/22 19:19:52;;;;;;;14.87;7.60;;;;;;;11.17;46.28;99561.81;6898718;28;20239;-81
2021/03/22 19:23:19;;;;;;;13.37;7.20;;;;;;;11.17;46.92;99584.22;6898478;28;20232;-81
2021/03/22 19:26:46;;;;;;;10.63;6.23;;;;;;;11.26;46.21;99571.47;6897124;28;20807;-83
2021/03/22 19:30:15;;;;;;;9.23;7.67;;;;;;;11.28;46.11;99580.22;6900283;28;20610;-81
2021/03/22 19:33:37;;;;;;;12.50;8.40;;;;;;;11.14;47.04;99578.38;6898790;28;20200;-82
2021/03/22 19:36:58;;;;;;;14.70;8.50;;;;;;;11.11;46.71;99581.47;6901312;28;20215;-85
2021/03/22 19:40:21;;;;;;;14.63;8.07;;;;;;;11.21;46.71;99590.13;6902768;28;20228;-83
2021/03/22 19:43:48;;;;;;;11.70;7.37;;;;;;;11.20;46.40;99601.91;6904536;28;20205;-87
2021/03/22 19:47:09;;;;;;;9.97;7.27;;;;;;;11.21;46.42;99577.44;6901562;28;20200;-83
2021/03/22 19:50:32;;;;;;;10.87;6.93;;;;;;;11.29;46.86;99603.50;6895984;28;20209;-83
2021/03/22 19:53:53;;;;;;;12.80;7.40;;;;;;;10.89;47.20;99598.63;6919010;28;20218;-84
2021/03/22 19:57:17;;;;;;;9.80;6.17;;;;;;;11.09;46.66;99597.03;6913523;28;20212;-83
2021/03/22 20:00:39;;;;;;;16.03;10.97;;;;;;;11.16;46.16;99623.06;6892706;28;20228;-82
2021/03/22 20:04:00;;;;;;;12.43;9.47;;;;;;;11.38;45.94;99613.13;6900665;28;20214;-83
2021/03/22 20:07:21;;;;;;;10.80;8.30;;;;;;;11.43;45.89;99625.03;6900449;28;20204;-83
2021/03/22 20:10:47;;;;;;;12.60;7.23;;;;;;;11.13;46.18;99619.91;6898624;28;20228;-83
2021/03/22 20:14:11;;;;;;;15.20;8.43;;;;;;;10.75;46.69;99602.19;6874813;28;20259;-83
2021/03/22 20:17:33;;;;;;;11.27;7.63;;;;;;;10.94;47.07;99621.34;6871370;28;20213;-83
2021/03/22 20:20:57;;;;;;;12.10;7.80;;;;;;;10.96;47.12;99613.88;6872711;28;20248;-83
2021/03/22 20:24:21;;;;;;;13.13;7.53;;;;;;;11.21;46.31;99617.94;6873389;28;20662;-83
2021/03/22 20:27:45;;;;;;;12.13;8.03;;;;;;;11.28;46.48;99605.34;6873616;28;20231;-83
2021/03/22 20:31:10;;;;;;;13.40;7.60;;;;;;;11.13;46.44;99612.66;6873613;28;20233;-83
2021/03/22 20:34:35;;;;;;;9.00;6.13;;;;;;;11.11;46.29;99620.06;6872907;28;20209;-82